sensor_id;sensor_type;location;lat;lon;timestamp;pressure;altitude;pressure_sealevel;temperature;humidity
13934;BME280;7039;52.168;9.866;2023-04-01T03:39:43;98548.22;;;11.07;82.44
13934;BME280;7039;52.168;9.866;2023-04-01T03:42:09;98551.28;;;11.13;82.08
13934;BME280;7039;52.168;9.866;2023-04-01T03:44:36;98556.38;;;11.14;82.10
13934;BME280;7039;52.168;9.866;2023-04-01T03:47:02;98559.38;;;11.10;82.64
13934;BME280;7039;52.168;9.866;2023-04-01T03:49:29;98555.13;;;11.08;81.88
13934;BME280;7039;52.168;9.866;2023-04-01T03:51:57;98555.72;;;11.01;82.74
13934;BME280;7039;52.168;9.866;2023-04-01T03:54:23;98557.50;;;11.21;82.07
13934;BME280;7039;52.168;9.866;2023-04-01T03:56:51;98565.09;;;11.24;82.01
13934;BME280;7039;52.168;9.866;2023-04-01T03:59:18;98560.00;;;11.23;81.99
13934;BME280;7039;52.168;9.866;2023-04-01T04:01:46;98562.72;;;11.21;82.02
13934;BME280;7039;52.168;9.866;2023-04-01T04:04:13;98559.47;;;11.08;82.74
13934;BME280;7039;52.168;9.866;2023-04-01T04:06:40;98562.94;;;11.08;82.73
13934;BME280;7039;52.168;9.866;2023-04-01T04:09:06;98559.41;;;11.19;83.16
13934;BME280;7039;52.168;9.866;2023-04-01T04:11:33;98558.44;;;11.11;83.35
13934;BME280;7039;52.168;9.866;2023-04-01T04:14:00;98565.09;;;11.24;83.48
13934;BME280;7039;52.168;9.866;2023-04-01T04:16:27;98567.13;;;11.21;83.94
13934;BME280;7039;52.168;9.866;2023-04-01T04:18:54;98560.38;;;11.18;83.72
13934;BME280;7039;52.168;9.866;2023-04-01T04:21:20;98566.81;;;11.14;84.47
13934;BME280;7039;52.168;9.866;2023-04-01T04:23:47;98566.81;;;11.14;84.63
13934;BME280;7039;52.168;9.866;2023-04-01T04:26:14;98569.69;;;11.11;85.02
13934;BME280;7039;52.168;9.866;2023-04-01T04:28:41;98570.78;;;11.08;85.81
13934;BME280;7039;52.168;9.866;2023-04-01T04:31:09;98577.00;;;11.17;85.22
13934;BME280;7039;52.168;9.866;2023-04-01T04:33:35;98578.66;;;11.18;85.23
13934;BME280;7039;52.168;9.866;2023-04-01T04:36:03;98581.00;;;11.21;85.57
13934;BME280;7039;52.168;9.866;2023-04-01T04:38:30;98587.75;;;11.24;85.32
13934;BME280;7039;52.168;9.866;2023-04-01T04:40:57;98586.38;;;11.20;85.16
13934;BME280;7039;52.168;9.866;2023-04-01T04:43:23;98590.41;;;11.13;86.02
13934;BME280;7039;52.168;9.866;2023-04-01T04:45:50;98589.59;;;11.12;86.09
13934;BME280;7039;52.168;9.866;2023-04-01T04:48:18;98588.13;;;10.98;87.31
13934;BME280;7039;52.168;9.866;2023-04-01T04:50:46;98586.66;;;11.05;87.01
13934;BME280;7039;52.168;9.866;2023-04-01T04:53:13;98588.28;;;11.18;86.62
13934;BME280;7039;52.168;9.866;2023-04-01T04:55:42;98589.16;;;11.28;86.11
13934;BME280;7039;52.168;9.866;2023-04-01T04:58:10;98590.34;;;11.03;86.51
13934;BME280;7039;52.168;9.866;2023-04-01T05:00:36;98592.19;;;10.91;87.40
13934;BME280;7039;52.168;9.866;2023-04-01T05:03:03;98585.06;;;10.93;87.45
13934;BME280;7039;52.168;9.866;2023-04-01T05:05:31;98592.78;;;10.95;86.93
13934;BME280;7039;52.168;9.866;2023-04-01T05:07:57;98594.31;;;10.97;87.68
13934;BME280;7039;52.168;9.866;2023-04-01T05:10:24;98594.03;;;11.00;87.39
13934;BME280;7039;52.168;9.866;2023-04-01T05:12:50;98599.25;;;11.00;87.28
13934;BME280;7039;52.168;9.866;2023-04-01T05:15:17;98592.06;;;10.93;87.71
13934;BME280;7039;52.168;9.866;2023-04-01T05:17:43;98599.56;;;10.86;88.25
13934;BME280;7039;52.168;9.866;2023-04-01T05:20:11;98594.84;;;10.80;88.36
13934;BME280;7039;52.168;9.866;2023-04-01T05:22:40;98597.91;;;10.85;88.00
13934;BME280;7039;52.168;9.866;2023-04-01T05:25:07;98600.06;;;10.80;88.70
13934;BME280;7039;52.168;9.866;2023-04-01T05:27:33;98599.97;;;10.70;88.56
13934;BME280;7039;52.168;9.866;2023-04-01T05:30:00;98604.63;;;10.87;88.13
13934;BME280;7039;52.168;9.866;2023-04-01T05:32:26;98601.22;;;10.87;87.70
13934;BME280;7039;52.168;9.866;2023-04-01T05:34:53;98595.88;;;10.89;88.10
13934;BME280;7039;52.168;9.866;2023-04-01T05:37:20;98601.69;;;10.81;88.36
13934;BME280;7039;52.168;9.866;2023-04-01T05:39:49;98601.88;;;11.00;87.46
13934;BME280;7039;52.168;9.866;2023-04-01T05:42:15;98604.56;;;10.78;88.45
13934;BME280;7039;52.168;9.866;2023-04-01T05:44:42;98614.88;;;10.79;88.47
13934;BME280;7039;52.168;9.866;2023-04-01T05:47:08;98616.09;;;10.96;87.59
13934;BME280;7039;52.168;9.866;2023-04-01T05:49:35;98615.34;;;11.05;87.05
13934;BME280;7039;52.168;9.866;2023-04-01T05:52:01;98613.84;;;11.03;87.36
13934;BME280;7039;52.168;9.866;2023-04-01T05:54:28;98622.63;;;11.23;86.38
13934;BME280;7039;52.168;9.866;2023-04-01T05:56:56;98616.44;;;11.24;86.28
13934;BME280;7039;52.168;9.866;2023-04-01T05:59:22;98618.63;;;11.19;86.81
13934;BME280;7039;52.168;9.866;2023-04-01T06:01:49;98623.06;;;11.49;85.92
13934;BME280;7039;52.168;9.866;2023-04-01T06:04:17;98618.94;;;11.25;86.07
13934;BME280;7039;52.168;9.866;2023-04-01T06:06:44;98625.88;;;11.36;86.41
13934;BME280;7039;52.168;9.866;2023-04-01T06:09:14;98619.41;;;11.52;85.09
13934;BME280;7039;52.168;9.866;2023-04-01T06:11:54;98633.38;;;11.71;85.05
13934;BME280;7039;52.168;9.866;2023-04-01T06:14:30;98634.09;;;11.53;85.05
13934;BME280;7039;52.168;9.866;2023-04-01T06:17:12;98639.44;;;11.72;84.45
13934;BME280;7039;52.168;9.866;2023-04-01T06:19:47;98641.00;;;11.84;83.87
13934;BME280;7039;52.168;9.866;2023-04-01T06:22:25;98635.59;;;11.76;84.06
13934;BME280;7039;52.168;9.866;2023-04-01T06:25:16;98645.78;;;11.79;83.92
13934;BME280;7039;52.168;9.866;2023-04-01T06:28:00;98643.00;;;11.71;84.61
13934;BME280;7039;52.168;9.866;2023-04-01T06:30:41;98653.44;;;11.71;84.19
13934;BME280;7039;52.168;9.866;2023-04-01T06:33:25;98641.41;;;11.59;85.71
13934;BME280;7039;52.168;9.866;2023-04-01T06:36:12;98644.81;;;11.80;84.37
13934;BME280;7039;52.168;9.866;2023-04-01T06:38:50;98647.44;;;11.80;83.99
13934;BME280;7039;52.168;9.866;2023-04-01T06:44:44;98650.41;;;11.45;85.76
13934;BME280;7039;52.168;9.866;2023-04-01T06:47:27;98647.72;;;11.56;85.46
13934;BME280;7039;52.168;9.866;2023-04-01T06:50:02;98661.50;;;11.58;85.62
13934;BME280;7039;52.168;9.866;2023-04-01T06:52:38;98650.19;;;11.37;86.08
13934;BME280;7039;52.168;9.866;2023-04-01T06:55:21;98659.31;;;11.42;86.33
13934;BME280;7039;52.168;9.866;2023-04-01T06:57:52;98652.88;;;11.67;85.36
13934;BME280;7039;52.168;9.866;2023-04-01T07:00:29;98656.94;;;11.60;85.58
13934;BME280;7039;52.168;9.866;2023-04-01T07:03:04;98656.19;;;11.48;85.54
13934;BME280;7039;52.168;9.866;2023-04-01T07:05:33;98667.91;;;11.75;85.44
13934;BME280;7039;52.168;9.866;2023-04-01T07:08:02;98663.25;;;11.79;85.15
13934;BME280;7039;52.168;9.866;2023-04-01T07:10:34;98666.19;;;11.85;84.78
13934;BME280;7039;52.168;9.866;2023-04-01T07:13:04;98666.78;;;11.89;84.92
13934;BME280;7039;52.168;9.866;2023-04-01T07:15:35;98671.09;;;12.00;84.38
13934;BME280;7039;52.168;9.866;2023-04-01T07:18:10;98665.72;;;12.01;84.14
13934;BME280;7039;52.168;9.866;2023-04-01T07:20:38;98675.94;;;12.04;84.53
13934;BME280;7039;52.168;9.866;2023-04-01T07:23:08;98681.91;;;12.26;84.30
13934;BME280;7039;52.168;9.866;2023-04-01T07:25:39;98679.59;;;12.23;84.38
13934;BME280;7039;52.168;9.866;2023-04-01T07:28:12;98684.41;;;12.27;84.45
13934;BME280;7039;52.168;9.866;2023-04-01T07:30:47;98678.47;;;12.25;84.13
13934;BME280;7039;52.168;9.866;2023-04-01T07:33:22;98685.34;;;12.57;83.87
13934;BME280;7039;52.168;9.866;2023-04-01T07:35:58;98685.50;;;12.25;84.79
13934;BME280;7039;52.168;9.866;2023-04-01T07:38:35;98683.94;;;12.12;84.24
13934;BME280;7039;52.168;9.866;2023-04-01T07:41:12;98692.75;;;12.42;83.98
13934;BME280;7039;52.168;9.866;2023-04-01T07:43:49;98695.75;;;12.38;83.95
13934;BME280;7039;52.168;9.866;2023-04-01T07:46:40;98691.56;;;12.66;83.31
13934;BME280;7039;52.168;9.866;2023-04-01T07:49:17;98698.69;;;12.54;83.26
13934;BME280;7039;52.168;9.866;2023-04-01T07:51:53;98692.63;;;12.53;83.43
13934;BME280;7039;52.168;9.866;2023-04-01T07:54:31;98702.09;;;12.45;83.96
13934;BME280;7039;52.168;9.866;2023-04-01T07:57:02;98702.31;;;12.32;83.80
13934;BME280;7039;52.168;9.866;2023-04-01T07:59:39;98712.97;;;12.50;83.27
13934;BME280;7039;52.168;9.866;2023-04-01T08:02:19;98712.09;;;12.70;82.47
13934;BME280;7039;52.168;9.866;2023-04-01T08:05:01;98715.13;;;12.85;82.90
13934;BME280;7039;52.168;9.866;2023-04-01T08:07:35;98705.47;;;12.66;82.44
13934;BME280;7039;52.168;9.866;2023-04-01T08:10:10;98708.06;;;12.66;82.43
13934;BME280;7039;52.168;9.866;2023-04-01T08:12:47;98715.00;;;12.77;81.46
13934;BME280;7039;52.168;9.866;2023-04-01T08:15:21;98720.53;;;12.93;81.20
13934;BME280;7039;52.168;9.866;2023-04-01T08:17:57;98720.91;;;12.69;82.54
13934;BME280;7039;52.168;9.866;2023-04-01T08:20:34;98724.03;;;12.53;82.53
13934;BME280;7039;52.168;9.866;2023-04-01T08:23:07;98721.50;;;12.42;83.03
13934;BME280;7039;52.168;9.866;2023-04-01T08:25:38;98718.41;;;12.68;82.28
13934;BME280;7039;52.168;9.866;2023-04-01T08:28:13;98735.53;;;13.01;81.06
13934;BME280;7039;52.168;9.866;2023-04-01T08:30:44;98727.66;;;12.72;81.02
13934;BME280;7039;52.168;9.866;2023-04-01T08:33:16;98731.41;;;12.89;80.31
13934;BME280;7039;52.168;9.866;2023-04-01T08:35:50;98730.59;;;12.88;79.77
13934;BME280;7039;52.168;9.866;2023-04-01T08:38:21;98741.97;;;13.28;80.09
13934;BME280;7039;52.168;9.866;2023-04-01T08:40:58;98735.38;;;13.33;79.14
13934;BME280;7039;52.168;9.866;2023-04-01T08:43:42;98736.22;;;12.93;79.73
13934;BME280;7039;52.168;9.866;2023-04-01T08:46:19;98732.09;;;12.91;79.17
13934;BME280;7039;52.168;9.866;2023-04-01T08:49:06;98742.16;;;13.05;78.16
13934;BME280;7039;52.168;9.866;2023-04-01T08:52:10;98745.38;;;13.19;78.15
13934;BME280;7039;52.168;9.866;2023-04-01T08:57:40;98746.47;;;13.26;77.66
13934;BME280;7039;52.168;9.866;2023-04-01T09:00:15;98758.25;;;13.61;77.72
13934;BME280;7039;52.168;9.866;2023-04-01T09:02:55;98750.91;;;13.64;77.04
13934;BME280;7039;52.168;9.866;2023-04-01T09:08:40;98756.56;;;13.69;76.29
13934;BME280;7039;52.168;9.866;2023-04-01T09:11:18;98756.13;;;13.25;76.98
13934;BME280;7039;52.168;9.866;2023-04-01T09:17:11;98759.34;;;13.48;76.39
13934;BME280;7039;52.168;9.866;2023-04-01T09:19:54;98755.03;;;13.28;76.45
13934;BME280;7039;52.168;9.866;2023-04-01T09:22:31;98755.75;;;13.30;75.51
13934;BME280;7039;52.168;9.866;2023-04-01T09:25:20;98763.06;;;13.46;75.63
13934;BME280;7039;52.168;9.866;2023-04-01T09:27:54;98761.53;;;13.72;75.47
13934;BME280;7039;52.168;9.866;2023-04-01T09:30:58;98767.75;;;13.81;76.14
13934;BME280;7039;52.168;9.866;2023-04-01T09:36:44;98764.84;;;13.45;76.08
13934;BME280;7039;52.168;9.866;2023-04-01T10:06:31;98807.88;;;13.82;77.69
13934;BME280;7039;52.168;9.866;2023-04-01T10:21:29;98827.81;;;14.41;78.26
13934;BME280;7039;52.168;9.866;2023-04-01T10:24:43;98830.44;;;14.88;76.29
13934;BME280;7039;52.168;9.866;2023-04-01T10:34:09;98828.03;;;15.50;75.64
13934;BME280;7039;52.168;9.866;2023-04-01T10:36:58;98831.66;;;15.21;74.85
13934;BME280;7039;52.168;9.866;2023-04-01T11:29:14;98847.97;;;15.71;71.01
13934;BME280;7039;52.168;9.866;2023-04-01T11:32:12;98840.75;;;15.27;72.09
13934;BME280;7039;52.168;9.866;2023-04-01T11:41:24;98853.31;;;16.15;70.12
13934;BME280;7039;52.168;9.866;2023-04-01T12:13:53;98863.44;;;17.57;62.62
13934;BME280;7039;52.168;9.866;2023-04-01T12:31:01;98878.81;;;17.78;64.78
13934;BME280;7039;52.168;9.866;2023-04-01T13:49:31;98941.31;;;15.47;74.59
13934;BME280;7039;52.168;9.866;2023-04-01T13:52:50;98948.44;;;15.27;75.04
13934;BME280;7039;52.168;9.866;2023-04-01T13:55:28;98947.75;;;15.25;76.57
13934;BME280;7039;52.168;9.866;2023-04-01T13:58:13;98946.22;;;14.85;77.61
13934;BME280;7039;52.168;9.866;2023-04-01T14:01:06;98945.66;;;14.91;78.39
13934;BME280;7039;52.168;9.866;2023-04-01T14:03:54;98954.56;;;14.51;78.70
13934;BME280;7039;52.168;9.866;2023-04-01T14:22:13;99001.47;;;14.15;81.32
13934;BME280;7039;52.168;9.866;2023-04-01T14:35:31;99016.22;;;14.07;82.20
13934;BME280;7039;52.168;9.866;2023-04-01T14:38:31;99013.06;;;14.13;82.01
13934;BME280;7039;52.168;9.866;2023-04-01T15:24:47;99094.84;;;12.05;90.31
13934;BME280;7039;52.168;9.866;2023-04-01T15:27:27;99083.47;;;11.95;90.77
13934;BME280;7039;52.168;9.866;2023-04-01T15:30:18;99105.28;;;11.82;90.75
13934;BME280;7039;52.168;9.866;2023-04-01T15:33:16;99112.41;;;11.69;90.69
13934;BME280;7039;52.168;9.866;2023-04-01T15:36:04;99102.78;;;11.47;90.58
13934;BME280;7039;52.168;9.866;2023-04-01T15:38:51;99113.66;;;11.41;91.09
13934;BME280;7039;52.168;9.866;2023-04-01T15:42:12;99126.63;;;11.42;90.75
13934;BME280;7039;52.168;9.866;2023-04-01T15:44:58;99116.94;;;11.20;91.05
13934;BME280;7039;52.168;9.866;2023-04-01T15:47:34;99138.94;;;11.40;90.43
13934;BME280;7039;52.168;9.866;2023-04-01T15:50:26;99137.56;;;11.23;91.10
13934;BME280;7039;52.168;9.866;2023-04-01T15:53:03;99156.25;;;11.41;90.26
13934;BME280;7039;52.168;9.866;2023-04-01T15:55:37;99144.97;;;11.29;90.63
13934;BME280;7039;52.168;9.866;2023-04-01T15:58:22;99156.44;;;11.16;90.85
13934;BME280;7039;52.168;9.866;2023-04-01T16:00:57;99162.22;;;11.19;91.19
13934;BME280;7039;52.168;9.866;2023-04-01T16:03:37;99166.75;;;11.17;90.76
13934;BME280;7039;52.168;9.866;2023-04-01T16:06:15;99175.03;;;11.11;91.33
13934;BME280;7039;52.168;9.866;2023-04-01T16:08:54;99185.47;;;11.11;90.70
13934;BME280;7039;52.168;9.866;2023-04-01T16:11:34;99185.97;;;11.16;90.12
13934;BME280;7039;52.168;9.866;2023-04-01T16:14:16;99188.41;;;11.06;90.56
13934;BME280;7039;52.168;9.866;2023-04-01T16:17:01;99189.91;;;10.98;90.49
13934;BME280;7039;52.168;9.866;2023-04-01T16:19:49;99197.44;;;10.90;90.90
13934;BME280;7039;52.168;9.866;2023-04-01T16:22:22;99208.56;;;11.04;90.53
13934;BME280;7039;52.168;9.866;2023-04-01T16:24:54;99212.56;;;10.97;90.77
13934;BME280;7039;52.168;9.866;2023-04-01T16:27:26;99220.25;;;10.99;90.25
13934;BME280;7039;52.168;9.866;2023-04-01T16:30:00;99221.66;;;10.92;90.93
13934;BME280;7039;52.168;9.866;2023-04-01T16:32:35;99219.94;;;10.79;90.56
13934;BME280;7039;52.168;9.866;2023-04-01T16:35:29;99229.38;;;10.56;91.56
13934;BME280;7039;52.168;9.866;2023-04-01T16:38:00;99234.59;;;10.43;91.57
13934;BME280;7039;52.168;9.866;2023-04-01T16:40:38;99231.91;;;10.32;91.15
13934;BME280;7039;52.168;9.866;2023-04-01T16:43:14;99247.00;;;10.40;91.13
13934;BME280;7039;52.168;9.866;2023-04-01T16:45:53;99248.59;;;10.42;90.96
13934;BME280;7039;52.168;9.866;2023-04-01T16:48:23;99249.41;;;10.30;91.33
13934;BME280;7039;52.168;9.866;2023-04-01T16:50:59;99263.56;;;10.26;90.74
13934;BME280;7039;52.168;9.866;2023-04-01T16:53:36;99266.59;;;10.20;91.54
13934;BME280;7039;52.168;9.866;2023-04-01T16:56:11;99282.00;;;10.10;91.65
13934;BME280;7039;52.168;9.866;2023-04-01T16:58:42;99282.66;;;10.27;90.97
13934;BME280;7039;52.168;9.866;2023-04-01T17:01:13;99299.13;;;10.40;90.14
13934;BME280;7039;52.168;9.866;2023-04-01T17:03:44;99296.69;;;10.24;90.41
13934;BME280;7039;52.168;9.866;2023-04-01T17:06:19;99304.78;;;10.34;90.00
13934;BME280;7039;52.168;9.866;2023-04-01T17:11:49;99313.84;;;10.54;89.48
13934;BME280;7039;52.168;9.866;2023-04-01T17:14:25;99319.59;;;10.33;90.51
13934;BME280;7039;52.168;9.866;2023-04-01T17:17:18;99328.06;;;10.10;91.24
13934;BME280;7039;52.168;9.866;2023-04-01T17:19:56;99332.84;;;10.03;90.77
13934;BME280;7039;52.168;9.866;2023-04-01T17:22:33;99339.00;;;10.15;90.51
13934;BME280;7039;52.168;9.866;2023-04-01T17:28:21;99353.59;;;10.04;90.49
13934;BME280;7039;52.168;9.866;2023-04-01T17:30:59;99352.13;;;10.00;90.36
13934;BME280;7039;52.168;9.866;2023-04-01T17:33:46;99356.13;;;9.79;90.71
13934;BME280;7039;52.168;9.866;2023-04-01T17:36:36;99371.78;;;9.92;90.80
13934;BME280;7039;52.168;9.866;2023-04-01T17:39:18;99379.81;;;9.89;90.62
13934;BME280;7039;52.168;9.866;2023-04-01T17:41:49;99381.16;;;9.67;91.35
13934;BME280;7039;52.168;9.866;2023-04-01T17:44:28;99383.38;;;9.73;90.83
13934;BME280;7039;52.168;9.866;2023-04-01T17:47:09;99400.59;;;9.34;91.88
13934;BME280;7039;52.168;9.866;2023-04-01T17:49:42;99394.19;;;9.26;92.68
13934;BME280;7039;52.168;9.866;2023-04-01T17:52:16;99407.28;;;9.38;91.71
13934;BME280;7039;52.168;9.866;2023-04-01T17:54:52;99411.28;;;9.30;91.23
13934;BME280;7039;52.168;9.866;2023-04-01T17:57:33;99417.41;;;9.29;91.37
13934;BME280;7039;52.168;9.866;2023-04-01T18:00:18;99426.53;;;9.22;91.64
13934;BME280;7039;52.168;9.866;2023-04-01T18:02:54;99427.56;;;9.19;92.00
13934;BME280;7039;52.168;9.866;2023-04-01T18:05:30;99428.47;;;8.89;92.67
13934;BME280;7039;52.168;9.866;2023-04-01T18:08:12;99445.03;;;9.03;92.42
13934;BME280;7039;52.168;9.866;2023-04-01T18:10:51;99449.75;;;9.10;91.64
13934;BME280;7039;52.168;9.866;2023-04-01T18:13:37;99455.63;;;9.14;91.68
13934;BME280;7039;52.168;9.866;2023-04-01T18:16:37;99458.50;;;9.09;91.58
13934;BME280;7039;52.168;9.866;2023-04-01T18:19:15;99468.34;;;9.04;91.33
13934;BME280;7039;52.168;9.866;2023-04-01T18:21:48;99476.97;;;9.05;91.43
13934;BME280;7039;52.168;9.866;2023-04-01T18:24:22;99484.78;;;9.05;91.42
13934;BME280;7039;52.168;9.866;2023-04-01T18:27:02;99487.88;;;9.11;91.98
13934;BME280;7039;52.168;9.866;2023-04-01T18:29:36;99495.47;;;9.00;91.97
13934;BME280;7039;52.168;9.866;2023-04-01T18:32:15;99498.25;;;8.97;91.74
13934;BME280;7039;52.168;9.866;2023-04-01T18:34:54;99515.72;;;9.09;91.30
13934;BME280;7039;52.168;9.866;2023-04-01T18:37:27;99518.19;;;8.96;91.72
13934;BME280;7039;52.168;9.866;2023-04-01T18:40:03;99519.31;;;8.92;91.37
13934;BME280;7039;52.168;9.866;2023-04-01T18:42:41;99524.34;;;8.95;90.85
13934;BME280;7039;52.168;9.866;2023-04-01T18:45:18;99527.78;;;8.96;90.66
13934;BME280;7039;52.168;9.866;2023-04-01T18:47:55;99539.38;;;8.90;90.41
13934;BME280;7039;52.168;9.866;2023-04-01T18:50:29;99548.56;;;8.82;90.38
13934;BME280;7039;52.168;9.866;2023-04-01T18:53:08;99553.53;;;8.70;90.13
13934;BME280;7039;52.168;9.866;2023-04-01T18:55:39;99563.97;;;8.85;89.96
13934;BME280;7039;52.168;9.866;2023-04-01T18:58:22;99558.75;;;8.85;89.34
13934;BME280;7039;52.168;9.866;2023-04-01T19:01:01;99576.22;;;8.83;89.34
13934;BME280;7039;52.168;9.866;2023-04-01T19:03:34;99578.25;;;8.77;89.43
13934;BME280;7039;52.168;9.866;2023-04-01T19:06:15;99583.13;;;8.68;89.97
13934;BME280;7039;52.168;9.866;2023-04-01T19:08:44;99589.75;;;8.73;89.29
13934;BME280;7039;52.168;9.866;2023-04-01T19:11:19;99582.16;;;8.54;89.29
13934;BME280;7039;52.168;9.866;2023-04-01T19:13:58;99600.75;;;8.47;90.09
13934;BME280;7039;52.168;9.866;2023-04-01T19:16:40;99602.44;;;8.64;89.21
13934;BME280;7039;52.168;9.866;2023-04-01T19:19:21;99611.56;;;8.55;89.65
13934;BME280;7039;52.168;9.866;2023-04-01T19:21:56;99622.63;;;8.74;89.11
13934;BME280;7039;52.168;9.866;2023-04-01T19:24:48;99626.66;;;8.64;89.44
13934;BME280;7039;52.168;9.866;2023-04-01T19:27:28;99639.91;;;8.60;88.88
13934;BME280;7039;52.168;9.866;2023-04-01T19:30:07;99643.50;;;8.73;88.65
13934;BME280;7039;52.168;9.866;2023-04-01T19:32:45;99635.41;;;8.47;89.27
13934;BME280;7039;52.168;9.866;2023-04-01T19:35:26;99652.22;;;8.56;89.22
13934;BME280;7039;52.168;9.866;2023-04-01T19:37:57;99653.34;;;8.52;88.98
13934;BME280;7039;52.168;9.866;2023-04-01T19:40:38;99648.91;;;8.21;89.86
13934;BME280;7039;52.168;9.866;2023-04-01T19:43:14;99657.28;;;8.26;89.89
13934;BME280;7039;52.168;9.866;2023-04-01T19:45:47;99669.53;;;8.40;89.37
13934;BME280;7039;52.168;9.866;2023-04-01T19:48:33;99677.72;;;8.49;88.60
13934;BME280;7039;52.168;9.866;2023-04-01T19:51:07;99672.25;;;8.38;88.27
13934;BME280;7039;52.168;9.866;2023-04-01T19:53:38;99685.25;;;8.05;89.53
13934;BME280;7039;52.168;9.866;2023-04-01T19:56:14;99694.16;;;8.16;88.93
13934;BME280;7039;52.168;9.866;2023-04-01T19:58:45;99703.47;;;8.21;88.34
13934;BME280;7039;52.168;9.866;2023-04-01T20:01:21;99710.16;;;8.09;88.94
13934;BME280;7039;52.168;9.866;2023-04-01T20:03:50;99713.47;;;7.95;89.34
13934;BME280;7039;52.168;9.866;2023-04-01T20:06:27;99715.19;;;8.12;88.89
13934;BME280;7039;52.168;9.866;2023-04-01T20:09:07;99727.69;;;8.04;89.01
13934;BME280;7039;52.168;9.866;2023-04-01T20:11:47;99725.22;;;7.85;89.39
13934;BME280;7039;52.168;9.866;2023-04-01T20:14:23;99736.78;;;7.79;89.17
13934;BME280;7039;52.168;9.866;2023-04-01T20:16:58;99751.88;;;7.71;89.53
13934;BME280;7039;52.168;9.866;2023-04-01T20:19:33;99758.97;;;7.85;89.20
13934;BME280;7039;52.168;9.866;2023-04-01T20:22:04;99759.72;;;7.69;89.25
13934;BME280;7039;52.168;9.866;2023-04-01T20:24:34;99768.44;;;7.68;89.21
13934;BME280;7039;52.168;9.866;2023-04-01T20:27:08;99769.28;;;7.69;88.81
13934;BME280;7039;52.168;9.866;2023-04-01T20:29:41;99766.84;;;7.66;88.79
13934;BME280;7039;52.168;9.866;2023-04-01T20:32:23;99782.72;;;7.60;88.22
13934;BME280;7039;52.168;9.866;2023-04-01T20:35:17;99782.53;;;7.63;88.25
13934;BME280;7039;52.168;9.866;2023-04-01T20:37:51;99791.78;;;7.51;87.74
13934;BME280;7039;52.168;9.866;2023-04-01T20:40:32;99799.81;;;7.64;88.37
13934;BME280;7039;52.168;9.866;2023-04-01T20:46:08;99810.59;;;7.73;88.27
13934;BME280;7039;52.168;9.866;2023-04-01T20:48:52;99823.72;;;7.70;88.95
13934;BME280;7039;52.168;9.866;2023-04-01T20:51:25;99825.59;;;7.49;88.88
13934;BME280;7039;52.168;9.866;2023-04-01T20:54:01;99828.03;;;7.52;88.82
13934;BME280;7039;52.168;9.866;2023-04-01T20:56:44;99833.38;;;7.49;89.22
13934;BME280;7039;52.168;9.866;2023-04-01T20:59:25;99844.53;;;7.69;88.94
13934;BME280;7039;52.168;9.866;2023-04-01T21:02:02;99848.75;;;7.71;88.15
13934;BME280;7039;52.168;9.866;2023-04-01T21:04:42;99849.69;;;7.51;88.65
13934;BME280;7039;52.168;9.866;2023-04-01T21:07:15;99856.44;;;7.56;88.49
13934;BME280;7039;52.168;9.866;2023-04-01T21:09:55;99866.69;;;7.59;88.87
13934;BME280;7039;52.168;9.866;2023-04-01T21:12:35;99877.75;;;7.62;88.09
13934;BME280;7039;52.168;9.866;2023-04-01T21:15:15;99871.19;;;7.36;88.26
13934;BME280;7039;52.168;9.866;2023-04-01T21:17:58;99867.81;;;7.15;88.30
13934;BME280;7039;52.168;9.866;2023-04-01T21:20:40;99873.66;;;7.20;87.58
13934;BME280;7039;52.168;9.866;2023-04-01T21:23:46;99886.44;;;7.42;88.05
13934;BME280;7039;52.168;9.866;2023-04-01T21:26:25;99901.13;;;7.43;86.84
13934;BME280;7039;52.168;9.866;2023-04-01T21:29:14;99904.97;;;7.53;86.75
13934;BME280;7039;52.168;9.866;2023-04-01T21:31:53;99922.44;;;7.50;87.65
13934;BME280;7039;52.168;9.866;2023-04-01T21:34:42;99914.94;;;7.44;87.52
13934;BME280;7039;52.168;9.866;2023-04-01T21:40:11;99915.19;;;7.38;87.23
13934;BME280;7039;52.168;9.866;2023-04-01T21:42:46;99926.97;;;7.26;86.88
13934;BME280;7039;52.168;9.866;2023-04-01T21:45:28;99937.16;;;7.11;87.04
13934;BME280;7039;52.168;9.866;2023-04-01T21:51:40;99932.69;;;6.95;87.27
13934;BME280;7039;52.168;9.866;2023-04-01T21:57:42;99940.78;;;7.07;86.29
13934;BME280;7039;52.168;9.866;2023-04-01T22:00:18;99947.56;;;6.91;86.21
13934;BME280;7039;52.168;9.866;2023-04-01T22:03:28;99960.06;;;7.02;86.03
13934;BME280;7039;52.168;9.866;2023-04-01T22:06:06;99957.00;;;6.92;86.45
13934;BME280;7039;52.168;9.866;2023-04-01T22:09:05;99969.25;;;7.09;85.85
13934;BME280;7039;52.168;9.866;2023-04-01T22:11:42;99982.59;;;7.20;85.64
13934;BME280;7039;52.168;9.866;2023-04-01T22:14:16;99978.06;;;7.05;86.12
13934;BME280;7039;52.168;9.866;2023-04-01T22:16:54;99970.16;;;6.87;86.30
13934;BME280;7039;52.168;9.866;2023-04-01T22:19:26;99972.84;;;6.65;86.59
13934;BME280;7039;52.168;9.866;2023-04-01T22:21:59;99988.44;;;6.84;86.51
13934;BME280;7039;52.168;9.866;2023-04-01T22:24:34;99993.63;;;6.84;86.05
13934;BME280;7039;52.168;9.866;2023-04-01T22:27:14;99992.06;;;6.80;85.76
13934;BME280;7039;52.168;9.866;2023-04-01T22:29:50;99997.25;;;6.60;86.33
13934;BME280;7039;52.168;9.866;2023-04-01T22:32:24;100008.06;;;6.69;86.24
13934;BME280;7039;52.168;9.866;2023-04-01T22:34:58;100011.72;;;6.65;86.73
13934;BME280;7039;52.168;9.866;2023-04-01T22:37:33;100010.19;;;6.60;86.35
13934;BME280;7039;52.168;9.866;2023-04-01T22:40:16;100014.31;;;6.65;85.95
13934;BME280;7039;52.168;9.866;2023-04-01T22:42:48;100029.31;;;6.78;85.89
13934;BME280;7039;52.168;9.866;2023-04-01T22:45:38;100031.75;;;6.60;86.50
13934;BME280;7039;52.168;9.866;2023-04-01T22:48:11;100031.66;;;6.63;85.89
13934;BME280;7039;52.168;9.866;2023-04-01T22:50:46;100040.44;;;6.59;86.37
13934;BME280;7039;52.168;9.866;2023-04-01T22:53:25;100045.22;;;6.90;85.85
13934;BME280;7039;52.168;9.866;2023-04-01T22:56:01;100050.91;;;6.78;85.67
13934;BME280;7039;52.168;9.866;2023-04-01T22:58:33;100061.63;;;6.91;85.47
13934;BME280;7039;52.168;9.866;2023-04-01T23:01:04;100052.78;;;6.75;85.87
13934;BME280;7039;52.168;9.866;2023-04-01T23:03:34;100061.84;;;6.64;86.49
13934;BME280;7039;52.168;9.866;2023-04-01T23:06:04;100065.72;;;6.54;86.95
13934;BME280;7039;52.168;9.866;2023-04-01T23:08:54;100061.56;;;6.50;86.94
13934;BME280;7039;52.168;9.866;2023-04-01T23:11:29;100075.09;;;6.57;86.94